Time;durP1;ratioP1;P1;durP2;ratioP2;P2;SDS_P1;SDS_P2;PMS_P1;PMS_P2;Temp;Humidity;BMP_temperature;BMP_pressure;BME280_temperature;BME280_humidity;BME280_pressure;Samples;Min_cycle;Max_cycle;Signal;HPM_P1;HPM_P2
2023/11/19 00:00:11;;;;;;;20.38;3.35;;;;;;;10.35;100.00;99179.22;5014940;28;20424;-48
2023/11/19 00:02:41;;;;;;;14.95;3.33;;;;;;;10.32;100.00;99180.78;5022163;28;20076;-48
2023/11/19 00:05:11;;;;;;;12.50;3.00;;;;;;;10.32;100.00;99182.75;5022772;28;20634;-46
2023/11/19 00:07:41;;;;;;;20.33;4.07;;;;;;;10.32;100.00;99183.56;5015919;28;20054;-46
2023/11/19 00:10:10;;;;;;;16.38;3.60;;;;;;;10.35;100.00;99182.00;5018987;28;20061;-46
2023/11/19 00:12:41;;;;;;;15.20;4.47;;;;;;;10.37;100.00;99172.13;5019868;28;20060;-48
2023/11/19 00:15:11;;;;;;;18.75;3.50;;;;;;;10.35;100.00;99163.41;5010930;28;20046;-47
2023/11/19 00:17:40;;;;;;;11.88;3.05;;;;;;;10.32;100.00;99166.16;5011329;28;20045;-47
2023/11/19 00:20:08;;;;;;;30.08;5.85;;;;;;;10.30;100.00;99160.19;5008562;28;20046;-47
2023/11/19 00:22:35;;;;;;;25.58;3.80;;;;;;;10.26;100.00;99145.56;5014523;28;20049;-48
2023/11/19 00:25:03;;;;;;;20.55;4.90;;;;;;;10.23;100.00;99160.13;5012245;28;20050;-46
2023/11/19 00:27:31;;;;;;;19.92;3.47;;;;;;;10.19;100.00;99162.84;5014353;28;20042;-47
2023/11/19 00:29:58;;;;;;;20.92;4.65;;;;;;;10.17;100.00;99167.97;5016460;28;20519;-48
2023/11/19 00:32:26;;;;;;;19.50;3.67;;;;;;;10.15;100.00;99175.88;5020187;28;20042;-48
2023/11/19 00:34:53;;;;;;;15.30;4.55;;;;;;;10.14;100.00;99190.88;5022693;28;20498;-49
2023/11/19 00:37:20;;;;;;;19.00;4.82;;;;;;;10.13;100.00;99180.19;5018306;28;20045;-48
2023/11/19 00:39:48;;;;;;;22.85;5.03;;;;;;;10.15;100.00;99178.63;5004076;28;20052;-47
2023/11/19 00:42:15;;;;;;;19.92;3.53;;;;;;;10.18;100.00;99182.63;5016626;28;20049;-50
2023/11/19 00:44:45;;;;;;;18.13;4.70;;;;;;;10.20;100.00;99178.28;5022621;28;20046;-46
2023/11/19 00:47:15;;;;;;;16.52;3.58;;;;;;;10.22;100.00;99172.38;5015359;28;20053;-48
2023/11/19 00:49:43;;;;;;;20.25;4.35;;;;;;;10.22;100.00;99172.38;5025124;28;20049;-47
2023/11/19 00:52:10;;;;;;;38.13;5.50;;;;;;;10.23;100.00;99183.06;5022191;28;20565;-47
2023/11/19 00:54:37;;;;;;;17.60;4.85;;;;;;;10.23;100.00;99177.53;5017534;28;20052;-46
2023/11/19 00:57:06;;;;;;;22.90;4.68;;;;;;;10.26;100.00;99174.00;5027828;28;20137;-46
2023/11/19 00:59:33;;;;;;;22.58;4.00;;;;;;;10.27;100.00;99177.56;5027695;28;20064;-50
2023/11/19 01:02:04;;;;;;;14.52;3.75;;;;;;;10.29;100.00;99161.38;5028920;28;20054;-47
2023/11/19 01:04:36;;;;;;;18.52;4.15;;;;;;;10.30;100.00;99154.66;5026396;28;20061;-49
2023/11/19 01:07:04;;;;;;;20.10;3.35;;;;;;;10.29;100.00;99167.72;4995764;28;20580;-46
2023/11/19 01:09:35;;;;;;;22.80;3.90;;;;;;;10.30;100.00;99168.50;5012875;28;20049;-46
2023/11/19 01:12:03;;;;;;;15.60;3.65;;;;;;;10.28;100.00;99162.56;5026219;28;20051;-46
2023/11/19 01:14:30;;;;;;;17.58;4.38;;;;;;;10.25;100.00;99164.09;5028871;28;20048;-47
2023/11/19 01:16:58;;;;;;;15.60;2.97;;;;;;;10.22;100.00;99155.78;5029880;28;20647;-48
2023/11/19 01:19:26;;;;;;;14.52;2.97;;;;;;;10.17;100.00;99143.09;5029301;28;20057;-46
2023/11/19 01:21:53;;;;;;;16.75;3.65;;;;;;;10.13;100.00;99142.28;5026393;28;20391;-46
2023/11/19 01:24:21;;;;;;;12.93;2.90;;;;;;;10.10;100.00;99142.22;5029083;28;20053;-46
2023/11/19 01:26:48;;;;;;;19.05;4.55;;;;;;;10.07;100.00;99135.47;5011701;28;20395;-48
2023/11/19 01:29:16;;;;;;;15.40;3.72;;;;;;;10.04;100.00;99130.69;5028919;28;20042;-46
2023/11/19 01:31:46;;;;;;;22.55;6.53;;;;;;;10.00;100.00;99124.34;5029314;28;20784;-46
2023/11/19 01:34:14;;;;;;;25.48;4.45;;;;;;;9.98;100.00;99129.44;5008460;28;20045;-47
2023/11/19 01:36:41;;;;;;;20.88;3.47;;;;;;;9.98;100.00;99121.16;5022268;28;20499;-47
2023/11/19 01:39:08;;;;;;;19.98;3.40;;;;;;;10.01;100.00;99125.13;5029012;28;20063;-47
2023/11/19 01:41:36;;;;;;;17.85;3.45;;;;;;;10.03;100.00;99123.59;5027853;28;20053;-47
2023/11/19 01:44:05;;;;;;;18.80;2.90;;;;;;;10.07;100.00;99118.88;5013952;28;20052;-48
2023/11/19 01:46:33;;;;;;;20.80;5.63;;;;;;;10.09;100.00;99119.28;5023294;28;20052;-47
2023/11/19 01:49:02;;;;;;;12.75;2.50;;;;;;;10.12;100.00;99118.56;5028805;28;20049;-46
2023/11/19 01:51:30;;;;;;;19.95;2.97;;;;;;;10.16;100.00;99121.38;5009916;28;20422;-46
2023/11/19 01:53:58;;;;;;;17.10;3.08;;;;;;;10.16;100.00;99116.63;5028922;28;20049;-45
2023/11/19 01:56:26;;;;;;;10.50;2.80;;;;;;;10.19;100.00;99120.59;5028307;28;20056;-47
2023/11/19 01:58:55;;;;;;;13.20;3.45;;;;;;;10.20;100.00;99128.50;5028720;28;20049;-47
2023/11/19 02:01:23;;;;;;;8.93;2.95;;;;;;;10.22;100.00;99115.09;5028237;28;20045;-45
2023/11/19 02:03:52;;;;;;;14.77;2.25;;;;;;;10.25;100.00;99111.56;5028020;28;20045;-46
2023/11/19 02:06:19;;;;;;;12.13;2.50;;;;;;;10.25;100.00;99108.78;5028491;28;20056;-46
2023/11/19 02:08:47;;;;;;;16.25;2.65;;;;;;;10.26;100.00;99110.41;5007390;28;20392;-47
2023/11/19 02:11:15;;;;;;;14.98;2.67;;;;;;;10.28;100.00;99113.56;5028644;28;20523;-47
2023/11/19 02:13:44;;;;;;;13.45;2.97;;;;;;;10.28;100.00;99115.53;5028263;28;20046;-46
2023/11/19 02:16:11;;;;;;;12.57;2.90;;;;;;;10.26;100.00;99110.41;5028476;28;20061;-48
2023/11/19 02:18:39;;;;;;;17.23;6.72;;;;;;;10.25;100.00;99113.53;5028308;28;20068;-47
2023/11/19 02:21:06;;;;;;;17.50;3.50;;;;;;;10.24;100.00;99104.47;5028441;28;20053;-49
2023/11/19 02:23:33;;;;;;;13.52;3.03;;;;;;;10.23;100.00;99100.09;5010504;28;20530;-45
2023/11/19 02:26:15;;;;;;;11.93;3.42;;;;;;;10.23;100.00;99096.53;5026053;28;20056;-49
2023/11/19 02:28:43;;;;;;;13.30;2.88;;;;;;;10.23;100.00;99094.56;5028557;28;20551;-49
2023/11/19 02:31:11;;;;;;;13.68;2.78;;;;;;;10.23;100.00;99088.22;5027822;28;20046;-46
2023/11/19 02:33:40;;;;;;;16.63;2.38;;;;;;;10.22;100.00;99086.63;5027878;28;20037;-46
2023/11/19 02:36:08;;;;;;;12.93;2.72;;;;;;;10.22;100.00;99081.91;5018313;28;20049;-46
2023/11/19 02:38:36;;;;;;;11.40;2.50;;;;;;;10.22;100.00;99070.03;5022716;28;20841;-47
2023/11/19 02:41:08;;;;;;;16.27;2.10;;;;;;;10.23;100.00;99072.44;5028572;28;20049;-49
2023/11/19 02:43:37;;;;;;;10.77;2.58;;;;;;;10.24;100.00;99079.56;5027513;28;20052;-46
2023/11/19 02:46:06;;;;;;;9.73;2.55;;;;;;;10.25;100.00;99085.88;5027487;28;20068;-46
2023/11/19 02:48:37;;;;;;;14.30;2.15;;;;;;;10.23;100.00;99072.44;5028045;28;20049;-46
2023/11/19 02:51:06;;;;;;;12.02;2.70;;;;;;;10.23;100.00;99077.16;5027620;28;20124;-46
2023/11/19 02:53:37;;;;;;;7.45;2.55;;;;;;;10.21;100.00;99072.03;5028022;28;20392;-47
2023/11/19 02:56:25;;;;;;;13.27;2.90;;;;;;;10.22;100.00;99070.84;5026858;28;20061;-48
2023/11/19 02:58:53;;;;;;;19.67;3.22;;;;;;;10.21;100.00;99063.72;5007285;28;20057;-50
2023/11/19 03:01:29;;;;;;;8.32;2.30;;;;;;;10.23;100.00;99071.63;5111574;22;20655;-47
2023/11/19 03:03:58;;;;;;;30.35;4.35;;;;;;;10.23;100.00;99072.44;4988800;28;20078;-46
2023/11/19 03:06:28;;;;;;;11.15;2.67;;;;;;;10.24;100.00;99068.50;4986679;28;20034;-47
2023/11/19 03:08:56;;;;;;;8.88;2.10;;;;;;;10.24;100.00;99062.97;4988207;28;20058;-47
2023/11/19 03:11:24;;;;;;;13.48;2.13;;;;;;;10.25;100.00;99059.00;4987837;28;20042;-46
2023/11/19 03:13:51;;;;;;;15.68;3.10;;;;;;;10.27;100.00;99062.19;4988437;28;20062;-46
2023/11/19 03:16:19;;;;;;;14.90;2.70;;;;;;;10.28;100.00;99049.16;4987317;28;20050;-46
2023/11/19 03:18:46;;;;;;;11.35;3.33;;;;;;;10.28;100.00;99063.78;4988132;28;20057;-46
2023/11/19 03:21:14;;;;;;;13.07;2.22;;;;;;;10.29;100.00;99054.31;4987870;28;20050;-47
2023/11/19 03:23:41;;;;;;;13.18;2.65;;;;;;;10.31;100.00;99070.50;4987792;28;20146;-49
2023/11/19 03:26:10;;;;;;;13.65;4.28;;;;;;;10.32;100.00;99070.16;4988167;28;20423;-48
2023/11/19 03:28:37;;;;;;;10.15;2.35;;;;;;;10.32;100.00;99061.84;4987683;28;20046;-46
2023/11/19 03:31:08;;;;;;;12.55;3.13;;;;;;;10.33;100.00;99066.19;4988445;28;20072;-47
2023/11/19 03:33:37;;;;;;;11.45;2.75;;;;;;;10.35;100.00;99057.50;4987810;28;20042;-48
2023/11/19 03:36:05;;;;;;;7.45;2.03;;;;;;;10.36;100.00;99054.34;4987731;28;20050;-46
2023/11/19 03:38:33;;;;;;;14.80;4.20;;;;;;;10.37;100.00;99044.09;4986992;28;20439;-45
2023/11/19 03:41:00;;;;;;;18.20;2.83;;;;;;;10.37;100.00;99050.41;4987829;28;20057;-46
2023/11/19 03:43:27;;;;;;;15.63;3.85;;;;;;;10.38;100.00;99040.13;4987158;28;20050;-47
2023/11/19 03:45:54;;;;;;;6.75;1.98;;;;;;;10.38;100.00;99040.91;4986431;28;20528;-46
2023/11/19 03:48:22;;;;;;;16.50;2.33;;;;;;;10.38;100.00;99040.13;4986095;28;20050;-46
2023/11/19 03:50:49;;;;;;;12.95;2.38;;;;;;;10.38;100.00;99035.38;4987920;28;20043;-46
2023/11/19 03:53:18;;;;;;;17.75;2.80;;;;;;;10.37;100.00;99028.28;4987828;28;20050;-46
2023/11/19 03:55:45;;;;;;;12.73;2.42;;;;;;;10.36;100.00;99029.47;4987495;28;20038;-46
2023/11/19 03:58:13;;;;;;;9.23;2.67;;;;;;;10.36;100.00;99025.88;4987783;28;20069;-48
2023/11/19 04:00:41;;;;;;;12.38;2.20;;;;;;;10.35;100.00;99027.09;4988018;28;20809;-47
2023/11/19 04:03:08;;;;;;;10.23;4.30;;;;;;;10.32;100.00;99031.41;5009569;28;20121;-46
2023/11/19 04:05:35;;;;;;;11.80;1.92;;;;;;;10.30;100.00;99021.88;5007098;28;20054;-47
2023/11/19 04:08:02;;;;;;;14.27;2.95;;;;;;;10.28;100.00;99025.06;5007022;28;20034;-48
2023/11/19 04:10:30;;;;;;;11.45;2.33;;;;;;;10.26;100.00;99030.19;5006887;28;20050;-46
2023/11/19 04:12:57;;;;;;;12.43;3.53;;;;;;;10.25;100.00;99022.25;5007342;28;20056;-46
2023/11/19 04:15:24;;;;;;;11.70;3.03;;;;;;;10.26;100.00;99026.63;5007415;28;20053;-46
2023/11/19 04:17:52;;;;;;;8.70;1.65;;;;;;;10.25;100.00;99033.31;5008518;28;20504;-49
2023/11/19 04:20:19;;;;;;;14.23;2.20;;;;;;;10.25;100.00;99023.06;5010561;28;20050;-49
2023/11/19 04:22:46;;;;;;;9.60;2.20;;;;;;;10.28;100.00;99018.72;5010644;28;20054;-48
2023/11/19 04:25:14;;;;;;;7.53;2.08;;;;;;;10.30;100.00;99021.88;5011193;28;20056;-46
2023/11/19 04:27:42;;;;;;;9.80;1.90;;;;;;;10.31;100.00;99018.75;5011231;28;20054;-46
2023/11/19 04:30:10;;;;;;;9.70;2.70;;;;;;;10.34;100.00;99026.28;5010657;28;20419;-46
2023/11/19 04:32:38;;;;;;;14.32;2.88;;;;;;;10.36;100.00;99015.63;5008122;28;20050;-46
2023/11/19 04:35:07;;;;;;;12.90;2.22;;;;;;;10.37;100.00;99006.16;5004455;28;20046;-46
2023/11/19 04:37:37;;;;;;;10.05;1.88;;;;;;;10.39;100.00;99001.03;5011087;28;20123;-47
2023/11/19 04:40:05;;;;;;;12.68;2.17;;;;;;;10.40;100.00;98994.28;5010244;28;20058;-47
2023/11/19 04:42:32;;;;;;;8.75;1.90;;;;;;;10.39;100.00;99003.00;5008919;28;20057;-46
2023/11/19 04:45:00;;;;;;;10.80;2.40;;;;;;;10.36;100.00;98992.69;5010437;28;20053;-46
2023/11/19 04:47:27;;;;;;;10.88;2.00;;;;;;;10.30;100.00;99000.56;5010667;28;20046;-46
2023/11/19 04:49:54;;;;;;;7.85;1.33;;;;;;;10.28;100.00;98997.41;5010615;28;20072;-47
2023/11/19 04:52:22;;;;;;;8.68;1.40;;;;;;;10.26;100.00;99005.28;5010469;28;20058;-46
2023/11/19 04:54:49;;;;;;;10.52;1.75;;;;;;;10.25;100.00;98995.41;5009033;28;20041;-46
2023/11/19 04:57:17;;;;;;;6.68;1.58;;;;;;;10.24;100.00;98995.78;5010150;28;20061;-47
2023/11/19 04:59:45;;;;;;;8.52;1.98;;;;;;;10.24;100.00;98999.34;5010398;28;20054;-46
2023/11/19 05:02:12;;;;;;;10.00;1.80;;;;;;;10.23;100.00;99000.53;4996833;28;20054;-46
2023/11/19 05:04:46;;;;;;;8.98;1.58;;;;;;;10.24;100.00;98977.22;4990236;28;20057;-46
2023/11/19 05:07:14;;;;;;;15.88;1.88;;;;;;;10.25;100.00;98986.31;4970319;28;20074;-46
2023/11/19 05:09:43;;;;;;;12.63;1.50;;;;;;;10.25;100.00;98995.41;4987622;28;20498;-47
2023/11/19 05:12:12;;;;;;;6.32;1.48;;;;;;;10.24;100.00;98985.53;4990394;28;20053;-46
2023/11/19 05:14:39;;;;;;;13.45;2.15;;;;;;;10.25;100.00;98992.63;4989489;28;20062;-46
2023/11/19 05:17:07;;;;;;;10.75;2.85;;;;;;;10.26;100.00;98983.16;4989581;28;20074;-46
2023/11/19 05:19:35;;;;;;;11.27;1.73;;;;;;;10.26;100.00;98977.63;4989439;28;20635;-46
2023/11/19 05:22:02;;;;;;;9.07;2.30;;;;;;;10.27;100.00;98981.97;4989831;28;20046;-47
2023/11/19 05:24:31;;;;;;;8.13;2.10;;;;;;;10.27;100.00;98986.72;4988786;28;20373;-45
2023/11/19 05:26:58;;;;;;;6.28;1.42;;;;;;;10.27;100.00;98981.97;4989568;28;20042;-46
2023/11/19 05:29:25;;;;;;;18.05;4.47;;;;;;;10.28;100.00;98985.53;4987467;28;20046;-50
2023/11/19 05:31:55;;;;;;;5.57;1.23;;;;;;;10.28;100.00;98975.25;4989735;28;20041;-46
2023/11/19 05:34:22;;;;;;;8.38;2.28;;;;;;;10.28;100.00;98991.06;4988668;28;20038;-46
2023/11/19 05:36:50;;;;;;;10.27;1.95;;;;;;;10.27;100.00;98973.66;4989787;28;20069;-47
2023/11/19 05:39:21;;;;;;;8.88;1.73;;;;;;;10.27;100.00;98981.97;4986926;28;20050;-47
2023/11/19 05:41:48;;;;;;;5.40;1.38;;;;;;;10.25;100.00;98976.03;4988574;28;20042;-45
2023/11/19 05:44:17;;;;;;;8.13;2.05;;;;;;;10.25;100.00;98976.03;4987663;28;20046;-45
2023/11/19 05:46:45;;;;;;;6.05;1.77;;;;;;;10.24;100.00;98977.22;4989209;28;20049;-44
2023/11/19 05:49:13;;;;;;;5.57;1.40;;;;;;;10.24;100.00;98973.66;4989006;28;20046;-44
2023/11/19 05:51:41;;;;;;;13.57;1.42;;;;;;;10.25;100.00;98978.81;4989278;28;20046;-44
2023/11/19 05:54:10;;;;;;;11.00;2.40;;;;;;;10.27;100.00;98981.19;4987927;28;20038;-46
2023/11/19 05:56:37;;;;;;;11.38;1.52;;;;;;;10.27;100.00;98968.13;4988400;28;20042;-46
2023/11/19 05:59:07;;;;;;;9.68;1.48;;;;;;;10.28;100.00;98974.47;4988958;28;20061;-48
2023/11/19 06:01:34;;;;;;;12.90;1.63;;;;;;;10.28;100.00;98971.69;4984556;28;20050;-48
2023/11/19 06:04:02;;;;;;;10.00;1.48;;;;;;;10.26;100.00;98976.84;4989172;28;20057;-48
2023/11/19 06:06:30;;;;;;;8.52;1.92;;;;;;;10.25;100.00;98970.50;4970160;28;20050;-45
2023/11/19 06:08:57;;;;;;;12.75;1.40;;;;;;;10.22;100.00;98974.03;4988359;28;20294;-46
2023/11/19 06:11:26;;;;;;;10.43;1.65;;;;;;;10.22;100.00;98964.94;4988043;28;20448;-47
2023/11/19 06:13:54;;;;;;;10.80;1.23;;;;;;;10.19;100.00;98960.97;4988794;28;20492;-46
2023/11/19 06:16:21;;;;;;;5.53;1.27;;;;;;;10.19;100.00;98971.28;4987952;28;20046;-45
2023/11/19 06:18:48;;;;;;;3.28;0.98;;;;;;;10.17;100.00;98966.09;4988462;28;20057;-45
2023/11/19 06:21:16;;;;;;;5.20;1.80;;;;;;;10.16;100.00;98967.31;4987763;28;20054;-47
2023/11/19 06:23:43;;;;;;;3.55;1.10;;;;;;;10.17;100.00;98962.53;4988346;28;20046;-46
2023/11/19 06:26:11;;;;;;;5.05;1.60;;;;;;;10.18;100.00;98969.66;4988483;28;20050;-45
2023/11/19 06:28:38;;;;;;;7.55;1.00;;;;;;;10.17;100.00;98963.34;4989341;28;20073;-45
2023/11/19 06:31:08;;;;;;;4.38;1.10;;;;;;;10.18;100.00;98967.69;4986207;28;20054;-45
2023/11/19 06:33:35;;;;;;;8.20;0.98;;;;;;;10.17;100.00;98960.56;4987677;28;20058;-47
2023/11/19 06:36:03;;;;;;;6.07;0.85;;;;;;;10.17;100.00;98968.88;4988503;28;20056;-51
2023/11/19 06:38:30;;;;;;;4.35;0.50;;;;;;;10.19;100.00;98960.22;4987556;28;20088;-45
2023/11/19 06:40:57;;;;;;;3.97;0.82;;;;;;;10.19;100.00;98966.50;4987220;28;20397;-46
2023/11/19 06:43:25;;;;;;;5.20;0.82;;;;;;;10.20;100.00;98970.06;4987597;28;20050;-47
2023/11/19 06:45:54;;;;;;;5.20;1.00;;;;;;;10.20;100.00;98962.56;4988513;28;20077;-46
2023/11/19 06:48:21;;;;;;;6.15;1.10;;;;;;;10.21;100.00;98953.09;4987068;28;20050;-46
2023/11/19 06:50:49;;;;;;;4.10;0.52;;;;;;;10.21;100.00;98958.63;4988467;28;20042;-45
2023/11/19 06:53:16;;;;;;;4.15;1.10;;;;;;;10.20;100.00;98950.72;4987614;28;20050;-46
2023/11/19 06:55:43;;;;;;;7.00;1.10;;;;;;;10.18;100.00;98953.88;4988115;28;20475;-47
2023/11/19 06:58:12;;;;;;;8.05;1.17;;;;;;;10.18;100.00;98942.03;4987748;28;20046;-46
2023/11/19 07:00:39;;;;;;;6.07;1.20;;;;;;;10.17;100.00;98952.28;4986487;28;20048;-45
2023/11/19 07:03:08;;;;;;;9.52;1.45;;;;;;;10.17;100.00;98960.56;5005142;28;20046;-48
2023/11/19 07:05:40;;;;;;;4.38;1.20;;;;;;;10.18;100.00;98959.41;5008032;28;20048;-45
2023/11/19 07:08:07;;;;;;;8.82;2.20;;;;;;;10.19;100.00;98960.97;5006807;28;20083;-45
2023/11/19 07:10:34;;;;;;;8.88;1.63;;;;;;;10.20;100.00;98959.00;5006809;28;20053;-45
2023/11/19 07:13:05;;;;;;;3.72;0.90;;;;;;;10.20;100.00;98948.75;5006046;28;20501;-45
2023/11/19 07:15:33;;;;;;;4.60;0.95;;;;;;;10.20;100.00;98956.25;5006396;28;20053;-50
2023/11/19 07:18:00;;;;;;;11.00;1.10;;;;;;;10.22;100.00;98960.22;5007323;28;20085;-49
2023/11/19 07:20:30;;;;;;;5.38;1.00;;;;;;;10.21;100.00;98950.34;5006074;28;20046;-44
2023/11/19 07:22:58;;;;;;;2.55;0.88;;;;;;;10.21;100.00;98947.56;5005661;28;20046;-50
2023/11/19 07:25:26;;;;;;;6.25;0.82;;;;;;;10.23;100.00;98939.69;5006790;28;20408;-45
2023/11/19 07:27:53;;;;;;;3.58;1.08;;;;;;;10.22;100.00;98942.81;5006591;28;20038;-48
2023/11/19 07:30:21;;;;;;;3.80;1.45;;;;;;;10.23;100.00;98949.94;5006283;28;20528;-47
2023/11/19 07:32:48;;;;;;;6.38;2.05;;;;;;;10.22;100.00;98935.31;4985126;28;20058;-45
2023/11/19 07:35:15;;;;;;;6.68;1.10;;;;;;;10.22;100.00;98932.56;5005499;28;20057;-49
2023/11/19 07:37:43;;;;;;;3.40;1.10;;;;;;;10.22;100.00;98932.56;5007017;28;20056;-45
2023/11/19 07:40:11;;;;;;;7.18;1.20;;;;;;;10.22;100.00;98927.03;5005935;28;20053;-46
2023/11/19 07:42:38;;;;;;;3.90;0.88;;;;;;;10.23;100.00;98925.84;5006670;28;20046;-46
2023/11/19 07:45:07;;;;;;;9.73;1.00;;;;;;;10.25;100.00;98925.44;5006069;28;20053;-45
2023/11/19 07:47:34;;;;;;;6.93;1.05;;;;;;;10.27;100.00;98929.41;5006850;28;20049;-45
2023/11/19 07:50:03;;;;;;;3.47;1.02;;;;;;;10.29;100.00;98932.63;5006213;28;20129;-45
2023/11/19 07:52:30;;;;;;;2.33;1.08;;;;;;;10.31;100.00;98935.78;5006055;28;20045;-47
2023/11/19 07:54:58;;;;;;;4.28;0.88;;;;;;;10.35;100.00;98930.28;5006302;28;20053;-45
2023/11/19 07:57:27;;;;;;;3.70;0.38;;;;;;;10.37;100.00;98930.66;5006074;28;20052;-46
2023/11/19 07:59:54;;;;;;;3.45;0.50;;;;;;;10.39;100.00;98942.94;5006217;28;20050;-47
2023/11/19 08:02:24;;;;;;;3.30;0.43;;;;;;;10.38;100.00;98946.88;5016541;28;20061;-46
2023/11/19 08:04:51;;;;;;;3.83;0.60;;;;;;;10.39;100.00;98942.94;5006125;28;20088;-46
2023/11/19 08:07:19;;;;;;;1.63;0.32;;;;;;;10.40;100.00;98947.28;5005191;28;20056;-46
2023/11/19 08:09:47;;;;;;;1.05;0.30;;;;;;;10.42;100.00;98944.13;5005933;28;20504;-47
2023/11/19 08:12:15;;;;;;;2.17;0.50;;;;;;;10.44;100.00;98949.25;5005355;28;20050;-48
2023/11/19 08:14:44;;;;;;;1.05;0.40;;;;;;;10.46;100.00;98946.94;5005224;28;20048;-46
2023/11/19 08:17:12;;;;;;;2.30;0.40;;;;;;;10.48;100.00;98939.03;5003981;28;20046;-45
2023/11/19 08:19:39;;;;;;;2.15;0.43;;;;;;;10.51;100.00;98939.03;5006220;28;20054;-46
2023/11/19 08:22:06;;;;;;;5.55;1.65;;;;;;;10.55;100.00;98944.56;5005754;28;20053;-45
2023/11/19 08:24:34;;;;;;;2.33;0.30;;;;;;;10.56;100.00;98941.44;5006188;28;20613;-45
2023/11/19 08:27:01;;;;;;;3.58;0.30;;;;;;;10.61;100.00;98948.56;5006133;28;20053;-45
2023/11/19 08:29:29;;;;;;;0.75;0.35;;;;;;;10.64;100.00;98948.59;5001558;28;20064;-45
2023/11/19 08:31:57;;;;;;;4.20;0.30;;;;;;;10.68;100.00;98954.13;5006987;28;20061;-46
2023/11/19 08:34:24;;;;;;;1.80;0.57;;;;;;;10.69;100.00;98950.97;5006260;28;20061;-47
2023/11/19 08:36:55;;;;;;;1.35;0.35;;;;;;;10.70;100.00;98954.50;5006628;28;20076;-46
2023/11/19 08:39:22;;;;;;;2.50;0.30;;;;;;;10.74;100.00;98958.09;5006948;28;20046;-46
2023/11/19 08:41:50;;;;;;;1.52;0.40;;;;;;;10.75;100.00;98954.16;5006723;28;20053;-44
2023/11/19 08:44:19;;;;;;;2.10;0.43;;;;;;;10.75;100.00;98951.41;5006888;28;20049;-45
2023/11/19 08:46:48;;;;;;;2.25;0.25;;;;;;;10.76;100.00;98948.22;5022127;28;20080;-47
2023/11/19 08:49:16;;;;;;;3.58;0.82;;;;;;;10.78;100.00;98964.44;5005276;28;20096;-48
2023/11/19 08:51:45;;;;;;;0.90;0.30;;;;;;;10.80;100.00;98962.09;5007470;28;20061;-45
2023/11/19 08:54:12;;;;;;;3.10;0.30;;;;;;;10.79;100.00;98972.38;5007002;28;20507;-45
2023/11/19 08:56:42;;;;;;;1.40;0.32;;;;;;;10.81;100.00;98970.00;5008236;28;20042;-46
2023/11/19 08:59:09;;;;;;;0.50;0.30;;;;;;;10.83;100.00;98964.06;5021974;28;20064;-45
2023/11/19 09:01:36;;;;;;;1.98;0.20;;;;;;;10.84;100.00;98965.66;4996606;28;20053;-44
2023/11/19 09:04:04;;;;;;;1.58;0.30;;;;;;;10.85;100.00;98958.94;4987556;28;20057;-46
2023/11/19 09:06:32;;;;;;;1.20;0.17;;;;;;;10.86;100.00;98966.06;4988134;28;20039;-44
2023/11/19 09:09:05;;;;;;;2.42;0.30;;;;;;;10.87;100.00;98967.66;4985929;28;20046;-48
2023/11/19 09:11:32;;;;;;;0.40;0.20;;;;;;;10.86;100.00;98960.50;4965488;28;20050;-46
2023/11/19 09:13:59;;;;;;;0.38;0.10;;;;;;;10.87;100.00;98956.56;4987038;28;20046;-48
2023/11/19 09:16:27;;;;;;;1.17;0.63;;;;;;;10.86;100.00;98960.50;4987314;28;20051;-45
2023/11/19 09:18:54;;;;;;;1.08;0.20;;;;;;;10.88;100.00;98963.72;4986750;28;20050;-45
2023/11/19 09:21:22;;;;;;;1.42;0.20;;;;;;;10.86;100.00;98958.53;4987010;28;20073;-44
2023/11/19 09:23:49;;;;;;;0.43;0.20;;;;;;;10.87;100.00;98967.66;4989039;28;20054;-45
2023/11/19 09:26:17;;;;;;;1.08;0.30;;;;;;;10.88;100.00;98978.31;4970859;28;20042;-42
2023/11/19 09:28:45;;;;;;;1.17;0.15;;;;;;;10.90;100.00;98972.41;4987641;28;20050;-43
2023/11/19 09:31:16;;;;;;;0.20;0.20;;;;;;;10.92;100.00;98981.91;4986853;28;20046;-43
2023/11/19 09:33:44;;;;;;;0.50;0.10;;;;;;;10.95;100.00;98980.34;4978670;28;20042;-42
2023/11/19 09:36:16;;;;;;;1.02;0.20;;;;;;;10.97;100.00;98986.25;4985693;28;20050;-42
2023/11/19 09:38:45;;;;;;;0.65;0.20;;;;;;;10.99;100.00;98986.66;4987287;28;20070;-42
2023/11/19 09:41:13;;;;;;;3.22;0.40;;;;;;;11.03;100.00;98981.94;4986926;28;20042;-51
2023/11/19 09:43:42;;;;;;;1.02;0.20;;;;;;;11.08;100.00;98989.88;4983659;28;93820;-43
2023/11/19 09:46:16;;;;;;;1.92;0.17;;;;;;;11.14;100.00;98996.63;4984823;28;20046;-45
2023/11/19 09:48:52;;;;;;;1.48;0.10;;;;;;;11.20;100.00;98997.81;4987605;28;20054;-43
2023/11/19 09:51:20;;;;;;;0.57;0.30;;;;;;;11.22;100.00;99006.53;4986351;28;20057;-43
2023/11/19 09:54:03;;;;;;;0.10;0.10;;;;;;;11.28;100.00;99010.50;4984578;28;20480;-46
2023/11/19 09:56:38;;;;;;;0.63;0.10;;;;;;;11.29;100.00;99016.84;4972523;28;20132;-43
2023/11/19 09:59:06;;;;;;;0.22;0.20;;;;;;;11.30;100.00;99016.47;4979291;28;20042;-43
2023/11/19 10:01:34;;;;;;;0.57;0.20;;;;;;;11.33;100.00;99012.88;4986445;28;20050;-45
2023/11/19 10:04:02;;;;;;;0.70;0.20;;;;;;;11.33;100.00;99012.88;4986850;28;20046;-43
2023/11/19 10:06:30;;;;;;;3.35;0.63;;;;;;;11.35;100.00;99026.34;4986221;28;20050;-43
2023/11/19 10:08:59;;;;;;;0.90;0.20;;;;;;;11.35;100.00;99027.16;4986826;28;20066;-43
2023/11/19 10:11:26;;;;;;;2.08;0.95;;;;;;;11.37;100.00;99026.75;4986237;28;20050;-45
2023/11/19 10:13:54;;;;;;;0.95;0.22;;;;;;;11.38;100.00;99042.19;4986387;28;20050;-43
2023/11/19 10:16:28;;;;;;;0.60;0.40;;;;;;;11.39;100.00;99039.03;4985761;28;20523;-44
2023/11/19 10:18:56;;;;;;;0.50;0.40;;;;;;;11.41;100.00;99046.97;4987439;28;20053;-43
2023/11/19 10:21:25;;;;;;;1.92;0.40;;;;;;;11.42;100.00;99046.56;4987183;28;20043;-43
2023/11/19 10:23:56;;;;;;;1.65;0.45;;;;;;;11.41;100.00;99047.72;4987346;28;20050;-44
2023/11/19 10:26:24;;;;;;;0.75;0.20;;;;;;;11.46;100.00;99061.19;4986624;28;20500;-43
2023/11/19 10:28:52;;;;;;;1.77;0.20;;;;;;;11.48;100.00;99069.94;4987454;28;20058;-44
2023/11/19 10:31:26;;;;;;;0.35;0.22;;;;;;;11.54;100.00;99073.13;4987500;28;20045;-42
2023/11/19 10:33:54;;;;;;;5.63;0.50;;;;;;;11.59;100.00;99079.09;4987007;28;20054;-49
2023/11/19 10:36:23;;;;;;;1.25;0.40;;;;;;;11.66;100.00;99086.59;4987837;28;20739;-45
2023/11/19 10:38:53;;;;;;;1.70;0.73;;;;;;;11.70;100.00;99081.91;4987130;28;20081;-42
2023/11/19 10:41:30;;;;;;;2.17;0.50;;;;;;;11.73;100.00;99091.41;4987007;28;20853;-43
2023/11/19 10:43:59;;;;;;;2.95;0.52;;;;;;;11.73;100.00;99102.50;4987124;28;20055;-43
2023/11/19 10:46:40;;;;;;;1.33;0.70;;;;;;;11.76;100.00;99110.00;4986368;28;20046;-45
2023/11/19 10:49:08;;;;;;;1.23;0.60;;;;;;;11.75;100.00;99108.44;4987259;28;20050;-42
2023/11/19 10:51:35;;;;;;;2.38;0.50;;;;;;;11.76;100.00;99116.34;4986485;28;20057;-42
2023/11/19 10:54:05;;;;;;;1.45;0.30;;;;;;;11.79;100.00;99118.34;4967159;28;20047;-42
2023/11/19 10:56:34;;;;;;;4.30;0.40;;;;;;;11.81;100.00;99131.84;4982170;28;20393;-42
2023/11/19 10:59:03;;;;;;;4.43;0.70;;;;;;;11.84;100.00;99131.03;4986764;28;20046;-42
2023/11/19 11:01:50;;;;;;;1.80;0.50;;;;;;;11.89;100.00;99134.22;4988269;28;20047;-43
2023/11/19 11:04:23;;;;;;;3.08;0.40;;;;;;;11.90;100.00;99137.78;4967768;28;20054;-42
2023/11/19 11:06:51;;;;;;;1.23;0.47;;;;;;;11.89;100.00;99145.31;4975348;28;20042;-42
2023/11/19 11:09:19;;;;;;;2.47;0.40;;;;;;;11.90;100.00;99151.66;4988551;28;20061;-47
2023/11/19 11:11:47;;;;;;;2.42;0.30;;;;;;;11.90;100.00;99143.34;4987503;28;20411;-43
2023/11/19 11:14:18;;;;;;;3.72;0.47;;;;;;;11.87;100.00;99146.88;4988079;28;20046;-47
2023/11/19 11:16:46;;;;;;;3.45;0.30;;;;;;;11.87;100.00;99163.53;4988170;28;20050;-43
2023/11/19 11:19:16;;;;;;;3.15;0.52;;;;;;;11.85;100.00;99160.34;4987970;28;20057;-43
2023/11/19 11:21:46;;;;;;;2.95;0.50;;;;;;;11.85;100.00;99171.44;4988450;28;20047;-42
2023/11/19 11:24:38;;;;;;;3.20;0.35;;;;;;;11.82;100.00;99175.00;4987477;28;20039;-45
2023/11/19 11:27:33;;;;;;;1.05;0.30;;;;;;;11.81;100.00;99181.75;4986804;28;20054;-43